Nevele, Belgium
Current Conditions -  °F | °C
As of 7:55 PM on Friday 21 Nov 2014 (Local Time) from EHFS Reporting Station
Clear Clear  
Wind Chill: 39°   Ceiling: Unl
Heat Index: 46°   Visibility: 6mi
Dew Point: 43°   Wind: 18mph
Humidity: 87%   Direction: 120°ESE
Pressure: 30.06"   Gusts: NA
Location:  51.04°N, 3.55°E
Report Text: EHFS 211855Z AUTO 12016KT 090V150 9999 NSC 08/06 Q1018
Loading
Personal Weather Stations






























Interactive Weather Map New forecast layout! Learn more

10-Day Weather Forecast

Advertisements
Track Severe Weather on mobile